Aviation Digital Data Service (ADDS)

Output produced by METARs form (2155 UTC 19 February 2018)
found at http://www.aviationweather.gov/adds/metars/
 
GMAD 192130Z VRB02KT 8000 FEW016 13/11 Q1014 NOSIG
TAF GMAD 191700Z 1918/2024 20008KT CAVOK 
     BECMG 2012/2014 27012KT
       
GMMC 192000Z 04010KT 9999 BKN016 15/11 Q1015 NOSIG
GMFO 192100Z VRB02KT 7000 FEW010 SCT026 08/08 Q1017 NOSIG
TAF GMFO 191700Z 1918/2024 34014KT 9999 SCT016 BKN040TCU 
     PROB40 
     TEMPO 1923/2007 22002KT 0500 FG BKN006 
     BECMG 2014/2018 32014KT 9999 FEW016 SCT033TCU
       
GMMW 192100Z VRB01KT 6000 SCT020 BKN200 13/11 Q1017 NOSIG
TAF GMMW 191700Z 1918/2024 04008KT 9999 FEW023 SCT040 
     PROB40 1922/2007 3000 BR
       
GMFM 192100Z 31001KT 6000 SCT020 BKN200 11/09 Q1017 NOSIG
TAF GMFM 191100Z 1912/2018 VRB02KT 2000 BR BKN010 SCT020 
     BECMG 1912/1914 32010KT 5000 SCT020 FEW026CB BKN100
       
GMTA 192100Z 00000KT 9999 FEW016 SCT200 11/10 Q1017 NOSIG
TAF GMTA 191700Z 1918/2024 34004KT 9999 SCT016TCU SCT030
       
GMMI 191800Z 36012KT 6000 SCT010 18/12 Q1014 NOSIG
TAF GMMI 191700Z 1918/2024 36012KT 6000 FEW016 
     PROB30 2000/2005 4000 BR
       
GMAD 192130Z VRB02KT 8000 FEW016 13/11 Q1014 NOSIG
TAF GMAD 191700Z 1918/2024 20008KT CAVOK 
     BECMG 2012/2014 27012KT
       
GMAG 191800Z 28014KT 9999 FEW016 16/11 Q1013 NOSIG
GMAT 191800Z 36010KT 6000 BKN016 15/10 Q1014 NOSIG
GMFF 192130Z 19002KT 9999 BKN030 SCT200 12/10 Q1017 NOSIG
TAF GMFF 191700Z 1918/2024 32010KT 9999 SCT026 SCT200 
     BECMG 1922/2002 18006KT 
     BECMG 2008/2012 32010KT
       
GMFK 192100Z 36009KT 9999 SCT030 SCT080 15/M04 Q1015 NOSIG
GMFM 192100Z 31001KT 6000 SCT020 BKN200 11/09 Q1017 NOSIG
TAF GMFM 191100Z 1912/2018 VRB02KT 2000 BR BKN010 SCT020 
     BECMG 1912/1914 32010KT 5000 SCT020 FEW026CB BKN100
       
GMFO 192100Z VRB02KT 7000 FEW010 SCT026 08/08 Q1017 NOSIG
TAF GMFO 191700Z 1918/2024 34014KT 9999 SCT016 BKN040TCU 
     PROB40 
     TEMPO 1923/2007 22002KT 0500 FG BKN006 
     BECMG 2014/2018 32014KT 9999 FEW016 SCT033TCU
       
GMMB 192100Z AUTO 02004KT //// ////// 11/11 Q1017 NOSIG
GMMC 192000Z 04010KT 9999 BKN016 15/11 Q1015 NOSIG
GMMD 191900Z 16005KT 9999 FEW100 14/07 Q1015 NOSIG
GMME 192130Z 00000KT 5000 SCT020 SCT090 10/08 Q1016 NOSIG
TAF GMME 191700Z 1918/2024 30010KT 8000 SCT023 
     TEMPO 2000/2012 14006KT 
     TEMPO 2014/2024 36004KT 8000 NSC
       
GMMH 192100Z 02015KT 8000 SCT026 16/13 Q1016 NOSIG
TAF GMMH 191700Z 1918/2024 02019KT 8000 SCT026
       
GMMI 191800Z 36012KT 6000 SCT010 18/12 Q1014 NOSIG
TAF GMMI 191700Z 1918/2024 36012KT 6000 FEW016 
     PROB30 2000/2005 4000 BR
       
GMML 192100Z 02008KT 8000 NSC 15/11 Q1017 NOSIG
TAF GMML 191700Z 1918/2024 01016KT 8000 FEW026 BKN200
       
GMMN 192130Z 03006KT 6000 FEW010 SCT016 13/12 Q1017 NOSIG
TAF GMMN 191700Z 1918/2024 02012KT 9999 SCT016 
     BECMG 1921/1923 04004KT 4000 BR SCT008 
     TEMPO 2000/2007 0400 FG BKN003 
     BECMG 2010/2012 34010KT 9999 FEW016
       
GMMW 192100Z VRB01KT 6000 SCT020 BKN200 13/11 Q1017 NOSIG
TAF GMMW 191700Z 1918/2024 04008KT 9999 FEW023 SCT040 
     PROB40 1922/2007 3000 BR
       
GMMX 192130Z 08005KT 9999 SCT023 FEW030TCU 13/05 Q1015 NOSIG
TAF GMMX 191700Z 1918/2024 30014KT 8000 SCT023 FEW030TCU 
     BECMG 1921/1924 26004KT FEW026
       
GMMZ 192100Z 27006KT 9999 FEW020 FEW030TCU 13/M01 Q1015 NOSIG
TAF GMMZ 191700Z 1918/2024 27012KT 9999 SCT020 
     BECMG 1917/1922 VRB02KT 
     TEMPO 2016/2018 18013KT
       
GMTA 192100Z 00000KT 9999 FEW016 SCT200 11/10 Q1017 NOSIG
TAF GMTA 191700Z 1918/2024 34004KT 9999 SCT016TCU SCT030
       
GMTN 192100Z 22001KT 8000 FEW020 SCT200 10/08 Q1017 NOSIG
GMTT 192130Z 11005KT 5000 FEW013 SCT200 11/09 Q1017 NOSIG
TAF GMTT 191700Z 1918/2024 32010KT 6000 SCT013 SCT200 
     TEMPO 1920/2008 VRB02KT 3000 BR 
     BECMG 2008/2010 04012KT
       
GMTT 192130Z 11005KT 5000 FEW013 SCT200 11/09 Q1017 NOSIG
TAF GMTT 191700Z 1918/2024 32010KT 6000 SCT013 SCT200 
     TEMPO 1920/2008 VRB02KT 3000 BR 
     BECMG 2008/2010 04012KT
       
GMMX 192130Z 08005KT 9999 SCT023 FEW030TCU 13/05 Q1015 NOSIG
TAF GMMX 191700Z 1918/2024 30014KT 8000 SCT023 FEW030TCU 
     BECMG 1921/1924 26004KT FEW026
       
GMMN 192130Z 03006KT 6000 FEW010 SCT016 13/12 Q1017 NOSIG
TAF GMMN 191700Z 1918/2024 02012KT 9999 SCT016 
     BECMG 1921/1923 04004KT 4000 BR SCT008 
     TEMPO 2000/2007 0400 FG BKN003 
     BECMG 2010/2012 34010KT 9999 FEW016
       
GMFK 192100Z 36009KT 9999 SCT030 SCT080 15/M04 Q1015 NOSIG
GMMZ 192100Z 27006KT 9999 FEW020 FEW030TCU 13/M01 Q1015 NOSIG
TAF GMMZ 191700Z 1918/2024 27012KT 9999 SCT020 
     BECMG 1917/1922 VRB02KT 
     TEMPO 2016/2018 18013KT
       
GMAT 191800Z 36010KT 6000 BKN016 15/10 Q1014 NOSIG
GMFF 192130Z 19002KT 9999 BKN030 SCT200 12/10 Q1017 NOSIG
TAF GMFF 191700Z 1918/2024 32010KT 9999 SCT026 SCT200 
     BECMG 1922/2002 18006KT 
     BECMG 2008/2012 32010KT
       
GMME 192130Z 00000KT 5000 SCT020 SCT090 10/08 Q1016 NOSIG
TAF GMME 191700Z 1918/2024 30010KT 8000 SCT023 
     TEMPO 2000/2012 14006KT 
     TEMPO 2014/2024 36004KT 8000 NSC
       
GMTN 192100Z 22001KT 8000 FEW020 SCT200 10/08 Q1017 NOSIG